Terminal Aerodrome Forecast
Issued by NWS

Home | Current Version | Previous Version | Text Only | Print | Product List | Glossary Off
Versions: 1 2 3 4 5 6 7 8 9 10 11 12 13 14 15 16 17

000
FTUS43 KIWX 201700
TAFSBN
TAF
KSBN 201739Z 2018/2118 20014G23KT P6SM SCT060 BKN120
     FM202100 20013G20KT P6SM VCTS SCT040CB BKN120
      TEMPO 2021/2024 3SM TSRA BR BKN030CB
     FM210000 21007KT 6SM -SHRA SCT025 BKN050
     FM210300 21008KT P6SM VCSH BKN040
     FM211000 27012KT P6SM BKN020=

USA.gov is the U.S. government's official web portal to all federal, state and local government web resources and services.